createdAt,value
2023-01-27T00:00:12.228Z,16.25
2023-01-27T00:01:11.821Z,16.26
2023-01-27T00:02:11.703Z,16.26
2023-01-27T00:03:11.585Z,16.28
2023-01-27T00:04:11.488Z,16.25
2023-01-27T00:05:11.396Z,16.28
2023-01-27T00:06:11.319Z,16.23
2023-01-27T00:07:11.225Z,16.23
2023-01-27T00:08:11.100Z,16.26
2023-01-27T00:09:11.035Z,16.26
2023-01-27T00:10:11.186Z,16.25
2023-01-27T00:11:10.814Z,16.25
2023-01-27T00:12:10.683Z,16.25
2023-01-27T00:13:10.637Z,16.29
2023-01-27T00:14:10.554Z,16.25
2023-01-27T00:15:10.413Z,16.29
2023-01-27T00:16:10.339Z,16.26
2023-01-27T00:17:10.223Z,16.29
2023-01-27T00:18:10.122Z,16.20
2023-01-27T00:19:10.079Z,16.28
2023-01-27T00:20:10.084Z,16.28
2023-01-27T00:21:09.886Z,16.22
2023-01-27T00:22:09.724Z,16.23
2023-01-27T00:23:09.691Z,16.23
2023-01-27T00:24:09.586Z,16.26
2023-01-27T00:25:09.426Z,16.23
2023-01-27T00:26:09.328Z,16.20
2023-01-27T00:27:09.244Z,16.17
2023-01-27T00:28:09.129Z,16.17
2023-01-27T00:29:09.041Z,16.20
2023-01-27T00:30:08.914Z,16.25
2023-01-27T00:31:08.910Z,16.19
2023-01-27T00:32:08.763Z,16.12
2023-01-27T00:33:08.632Z,16.17
2023-01-27T00:34:08.573Z,16.19
2023-01-27T00:35:08.479Z,16.20
2023-01-27T00:36:08.347Z,16.16
2023-01-27T00:37:08.284Z,16.08
2023-01-27T00:38:08.159Z,16.08
2023-01-27T00:39:08.119Z,16.11
2023-01-27T00:40:07.996Z,16.12
2023-01-27T00:41:07.893Z,16.12
2023-01-27T00:42:07.819Z,16.18
2023-01-27T00:43:07.676Z,16.17
2023-01-27T00:44:07.625Z,16.17
2023-01-27T00:45:07.514Z,16.14
2023-01-27T00:46:07.445Z,16.14
2023-01-27T00:47:07.327Z,16.19
2023-01-27T00:48:07.224Z,16.18
2023-01-27T00:49:07.115Z,16.14
2023-01-27T00:50:06.997Z,16.11
2023-01-27T00:51:06.927Z,16.17
2023-01-27T00:52:06.836Z,16.17
2023-01-27T00:53:06.712Z,16.09
2023-01-27T00:54:06.655Z,16.12
2023-01-27T00:55:06.552Z,16.09
2023-01-27T00:56:06.429Z,16.09
2023-01-27T00:57:06.371Z,16.12
2023-01-27T00:58:06.287Z,16.15
2023-01-27T00:59:06.158Z,16.12
2023-01-27T01:00:06.051Z,16.12
2023-01-27T01:01:05.945Z,16.15
2023-01-27T01:02:06.011Z,16.17
2023-01-27T01:03:05.887Z,16.15
2023-01-27T01:04:05.691Z,16.14
2023-01-27T01:05:05.578Z,16.12
2023-01-27T01:06:05.480Z,16.15
2023-01-27T01:07:05.377Z,16.20
2023-01-27T01:08:05.284Z,16.12
2023-01-27T01:09:05.188Z,16.12
2023-01-27T01:10:05.096Z,16.09
2023-01-27T01:11:05.002Z,16.11
2023-01-27T01:12:04.900Z,16.09
2023-01-27T01:13:04.754Z,16.14
2023-01-27T01:14:04.709Z,16.11
2023-01-27T01:15:04.576Z,16.06
2023-01-27T01:16:04.562Z,16.12
2023-01-27T01:17:04.417Z,16.11
2023-01-27T01:18:04.268Z,16.14
2023-01-27T01:19:04.268Z,16.08
2023-01-27T01:20:04.106Z,16.05
2023-01-27T01:21:04.008Z,16.12
2023-01-27T01:22:05.033Z,16.05
2023-01-27T01:23:03.809Z,16.08
2023-01-27T01:24:03.800Z,16.06
2023-01-27T01:25:03.612Z,16.06
2023-01-27T01:26:03.504Z,16.09
2023-01-27T01:27:03.388Z,16.02
2023-01-27T01:28:03.304Z,16.06
2023-01-27T01:29:03.273Z,16.11
2023-01-27T01:30:03.093Z,16.08
2023-01-27T01:31:03.117Z,16.09
2023-01-27T01:32:02.907Z,16.05
2023-01-27T01:33:02.828Z,16.00
2023-01-27T01:34:02.725Z,16.05
2023-01-27T01:35:02.615Z,16.06
2023-01-27T01:36:02.552Z,16.08
2023-01-27T01:37:02.435Z,16.09
2023-01-27T01:38:02.383Z,16.08
2023-01-27T01:39:02.271Z,16.05
2023-01-27T01:40:02.173Z,16.06
2023-01-27T01:41:02.058Z,16.06
2023-01-27T01:42:01.957Z,16.06
2023-01-27T01:43:01.861Z,16.02
2023-01-27T01:44:01.788Z,16.05
2023-01-27T01:45:01.802Z,16.06
2023-01-27T01:46:01.671Z,16.05
2023-01-27T01:47:01.584Z,16.06
2023-01-27T01:48:01.429Z,16.05
2023-01-27T01:49:01.302Z,16.02
2023-01-27T01:50:01.210Z,16.06
2023-01-27T01:51:01.213Z,16.02
2023-01-27T01:52:01.139Z,16.05
2023-01-27T01:53:01.144Z,16.06
2023-01-27T01:54:01.146Z,16.04
2023-01-27T01:55:01.044Z,16.02
2023-01-27T01:56:00.993Z,16.05
2023-01-27T01:57:00.963Z,16.09
2023-01-27T01:58:00.936Z,16.09
2023-01-27T01:59:00.919Z,16.06
2023-01-27T02:00:00.869Z,16.03
2023-01-27T02:01:00.824Z,16.05
2023-01-27T02:02:00.810Z,16.05
2023-01-27T02:03:00.858Z,16.05
2023-01-27T02:04:00.696Z,15.99
2023-01-27T02:05:00.707Z,16.02
2023-01-27T02:06:00.596Z,16.05
2023-01-27T02:07:00.600Z,16.04
2023-01-27T02:08:00.537Z,16.00
2023-01-27T02:09:00.467Z,16.05
2023-01-27T02:10:00.391Z,16.05
2023-01-27T02:11:00.331Z,16.06
2023-01-27T02:12:00.230Z,16.06
2023-01-27T02:13:00.141Z,16.02
2023-01-27T02:14:00.064Z,16.02
2023-01-27T02:14:59.962Z,16.05
2023-01-27T02:15:59.896Z,16.02
2023-01-27T02:16:59.773Z,15.99
2023-01-27T02:17:59.676Z,16.06
2023-01-27T02:18:59.611Z,16.02
2023-01-27T02:19:59.531Z,16.08
2023-01-27T02:20:59.441Z,15.96
2023-01-27T02:21:59.322Z,15.99
2023-01-27T02:22:59.279Z,16.02
2023-01-27T02:23:59.216Z,15.99
2023-01-27T02:24:59.069Z,16.00
2023-01-27T02:25:59.018Z,16.02
2023-01-27T02:26:58.959Z,16.00
2023-01-27T02:27:58.862Z,15.99
2023-01-27T02:28:58.777Z,15.97
2023-01-27T02:29:58.680Z,16.00
2023-01-27T02:30:58.629Z,16.02
2023-01-27T02:31:58.480Z,15.96
2023-01-27T02:32:58.391Z,15.97
2023-01-27T02:33:58.288Z,15.97
2023-01-27T02:34:58.219Z,15.97
2023-01-27T02:35:58.125Z,16.00
2023-01-27T02:36:58.039Z,15.97
2023-01-27T02:37:57.948Z,15.94
2023-01-27T02:38:57.808Z,15.97
2023-01-27T02:39:57.763Z,15.96
2023-01-27T02:40:57.663Z,15.99
2023-01-27T02:41:57.573Z,16.00
2023-01-27T02:42:57.462Z,15.97
2023-01-27T02:43:57.371Z,16.05
2023-01-27T02:44:57.300Z,16.05
2023-01-27T02:45:57.249Z,15.99
2023-01-27T02:46:57.144Z,15.99
2023-01-27T03:35:53.181Z,16.00
2023-01-27T03:36:53.091Z,15.97
2023-01-27T03:37:53.017Z,15.99
2023-01-27T03:38:52.915Z,15.97
2023-01-27T03:39:52.828Z,15.96
2023-01-27T03:40:52.800Z,15.94
2023-01-27T03:41:52.760Z,15.96
2023-01-27T03:42:52.722Z,15.93
2023-01-27T03:43:52.631Z,15.88
2023-01-27T03:44:52.558Z,15.99
2023-01-27T03:45:52.488Z,15.87
2023-01-27T03:46:52.447Z,15.86
2023-01-27T03:47:52.342Z,15.87
2023-01-27T03:48:52.329Z,15.86
2023-01-27T03:49:52.294Z,15.84
2023-01-27T03:50:52.264Z,15.83
2023-01-27T03:51:52.195Z,15.81
2023-01-27T03:52:52.179Z,15.83
2023-01-27T03:53:52.089Z,15.80
2023-01-27T03:54:52.088Z,15.82
2023-01-27T03:55:51.992Z,15.80
2023-01-27T03:56:51.980Z,15.80
2023-01-27T03:57:51.888Z,15.83
2023-01-27T03:58:51.848Z,15.76
2023-01-27T03:59:51.815Z,15.79
2023-01-27T04:00:51.718Z,15.76
2023-01-27T04:01:51.698Z,15.77
2023-01-27T04:02:51.667Z,15.73
2023-01-27T04:03:51.575Z,15.74
2023-01-27T04:04:51.582Z,15.72
2023-01-27T04:05:51.441Z,15.72
2023-01-27T04:06:51.412Z,15.78
2023-01-27T04:07:51.356Z,15.68
2023-01-27T04:08:51.315Z,15.73
2023-01-27T04:09:51.258Z,15.69
2023-01-27T04:10:51.204Z,15.64
2023-01-27T04:11:51.223Z,15.67
2023-01-27T04:12:51.101Z,15.67
2023-01-27T04:13:51.032Z,15.66
2023-01-27T04:14:51.038Z,15.66
2023-01-27T04:15:50.962Z,15.64
2023-01-27T04:16:50.886Z,15.66
2023-01-27T04:17:50.852Z,15.63
2023-01-27T04:18:50.800Z,15.64
2023-01-27T04:19:50.759Z,15.60
2023-01-27T04:20:50.656Z,15.64
2023-01-27T04:21:50.665Z,15.61
2023-01-27T04:22:50.596Z,15.65
2023-01-27T04:23:50.549Z,15.61
2023-01-27T04:24:50.466Z,15.60
2023-01-27T04:25:50.404Z,15.65
2023-01-27T04:26:50.358Z,15.58
2023-01-27T04:27:50.310Z,15.55
2023-01-27T04:28:50.224Z,15.59
2023-01-27T04:29:50.352Z,15.62
2023-01-27T04:30:50.145Z,15.54
2023-01-27T04:31:50.159Z,15.53
2023-01-27T04:32:50.007Z,15.56
2023-01-27T04:33:49.943Z,15.53
2023-01-27T04:34:49.912Z,15.56
2023-01-27T04:35:49.836Z,15.50
2023-01-27T04:36:49.799Z,15.57
2023-01-27T04:37:49.733Z,15.61
2023-01-27T04:38:49.646Z,15.52
2023-01-27T04:39:49.602Z,15.51
2023-01-27T04:40:49.532Z,15.51
2023-01-27T04:41:49.501Z,15.56
2023-01-27T04:42:49.446Z,15.48
2023-01-27T04:43:49.363Z,15.54
2023-01-27T04:44:49.354Z,15.53
2023-01-27T04:45:49.333Z,15.53
2023-01-27T04:46:49.218Z,15.52
2023-01-27T04:47:49.147Z,15.53
2023-01-27T04:48:49.105Z,15.53
2023-01-27T04:49:49.074Z,15.50
2023-01-27T04:50:49.012Z,15.48
2023-01-27T04:51:48.929Z,15.47
2023-01-27T04:52:48.857Z,15.45
2023-01-27T04:53:48.769Z,15.51
2023-01-27T04:54:48.739Z,15.50
2023-01-27T04:55:48.648Z,15.48
2023-01-27T04:56:48.610Z,15.53
2023-01-27T04:57:48.550Z,15.50
2023-01-27T05:03:48.865Z,15.51
2023-01-27T06:26:42.366Z,15.58
2023-01-27T06:27:42.238Z,15.60
2023-01-27T06:28:42.148Z,15.62
2023-01-27T06:29:42.127Z,15.57
2023-01-27T06:30:42.065Z,15.58
2023-01-27T06:31:42.036Z,15.62
2023-01-27T06:32:41.930Z,15.61
2023-01-27T06:33:41.868Z,15.58
2023-01-27T06:34:41.818Z,15.58
2023-01-27T06:35:41.959Z,15.64
2023-01-27T06:36:41.648Z,15.61
2023-01-27T06:37:41.614Z,15.66
2023-01-27T06:38:41.573Z,15.61
2023-01-27T06:39:41.534Z,15.58
2023-01-27T06:40:41.945Z,15.62
2023-01-27T06:41:41.420Z,15.62
2023-01-27T06:42:41.313Z,15.61
2023-01-27T06:43:41.264Z,15.55
2023-01-27T06:44:41.182Z,15.57
2023-01-27T06:45:41.461Z,15.58
2023-01-27T06:46:41.118Z,15.52
2023-01-27T06:47:41.083Z,15.51
2023-01-27T06:48:40.988Z,15.54
2023-01-27T06:49:40.974Z,15.55
2023-01-27T06:50:40.930Z,15.52
2023-01-27T06:51:40.836Z,15.53
2023-01-27T06:52:40.783Z,15.49
2023-01-27T06:53:40.750Z,15.49
2023-01-27T06:54:40.701Z,15.49
2023-01-27T06:55:40.642Z,15.37
2023-01-27T06:56:40.569Z,15.43
2023-01-27T06:57:40.509Z,15.47
2023-01-27T06:58:40.471Z,15.41
2023-01-27T06:59:40.387Z,15.43
2023-01-27T07:00:40.375Z,15.41
2023-01-27T07:01:40.393Z,15.43
2023-01-27T07:02:40.369Z,15.46
2023-01-27T07:03:40.168Z,15.40
2023-01-27T07:04:40.150Z,15.37
2023-01-27T07:07:40.017Z,15.43
2023-01-27T07:08:39.942Z,15.41
2023-01-27T07:09:51.691Z,15.35
2023-01-27T07:10:40.766Z,15.43
2023-01-27T07:11:39.999Z,15.39
2023-01-27T07:12:39.636Z,15.40
2023-01-27T07:13:39.510Z,15.39
2023-01-27T07:14:39.393Z,15.31
2023-01-27T07:15:39.283Z,15.39
2023-01-27T07:16:39.456Z,15.33
2023-01-27T07:17:39.025Z,15.39
2023-01-27T07:18:39.982Z,15.37
2023-01-27T07:19:38.902Z,15.37
2023-01-27T07:20:38.880Z,15.37
2023-01-27T07:21:38.985Z,15.35
2023-01-27T07:22:38.719Z,15.35
2023-01-27T07:23:38.659Z,15.37
2023-01-27T07:24:38.634Z,15.35
2023-01-27T07:25:38.489Z,15.34
2023-01-27T07:26:38.487Z,15.35
2023-01-27T07:27:38.415Z,15.33
2023-01-27T07:28:38.328Z,15.34
2023-01-27T07:32:38.138Z,15.35
2023-01-27T07:33:38.099Z,15.31
2023-01-27T07:34:38.041Z,15.34
2023-01-27T07:35:37.985Z,15.35
2023-01-27T07:36:37.943Z,15.37
2023-01-27T07:42:37.598Z,15.33
2023-01-27T07:43:38.479Z,15.31
2023-01-27T07:44:37.463Z,15.31
2023-01-27T07:45:37.429Z,15.27
2023-01-27T07:46:37.455Z,15.26
2023-01-27T07:47:37.305Z,15.30
2023-01-27T07:48:37.227Z,15.28
2023-01-27T07:49:37.186Z,15.28
2023-01-27T07:50:37.134Z,15.30
2023-01-27T07:51:37.503Z,15.30
2023-01-27T07:52:37.013Z,15.28
2023-01-27T07:53:36.972Z,15.28
2023-01-27T07:54:36.876Z,15.25
2023-01-27T07:55:36.842Z,15.25
2023-01-27T07:56:36.776Z,15.31
2023-01-27T07:57:36.777Z,15.31
2023-01-27T07:58:36.657Z,15.30
2023-01-27T07:59:36.641Z,15.34
2023-01-27T08:00:36.619Z,15.35
2023-01-27T08:01:36.488Z,15.35
2023-01-27T08:02:36.475Z,15.37
2023-01-27T08:03:36.559Z,15.39
2023-01-27T08:04:50.855Z,15.37
2023-01-27T08:05:37.237Z,15.36
2023-01-27T08:06:36.166Z,15.39
2023-01-27T08:07:36.016Z,15.34
2023-01-27T08:08:38.054Z,15.31
2023-01-27T08:09:35.769Z,15.33
2023-01-27T08:10:35.697Z,15.30
2023-01-27T08:11:35.597Z,15.33
2023-01-27T08:12:35.485Z,15.30
2023-01-27T08:13:35.342Z,15.31
2023-01-27T08:18:35.078Z,15.34
2023-01-27T08:19:35.068Z,15.33
2023-01-27T08:20:34.973Z,15.28
2023-01-27T08:21:34.937Z,15.31
2023-01-27T08:22:34.879Z,15.36
2023-01-27T08:23:34.850Z,15.30
2023-01-27T08:24:34.798Z,15.28
2023-01-27T08:25:34.733Z,15.33
2023-01-27T08:26:34.671Z,15.30
2023-01-27T08:27:34.619Z,15.30
2023-01-27T08:28:34.546Z,15.28
2023-01-27T08:29:34.506Z,15.31
2023-01-27T08:30:34.492Z,15.28
2023-01-27T08:31:34.433Z,15.27
2023-01-27T08:32:34.353Z,15.31
2023-01-27T08:33:34.297Z,15.25
2023-01-27T08:34:34.241Z,15.25
2023-01-27T08:35:34.172Z,15.28
2023-01-27T08:36:34.163Z,15.34
2023-01-27T08:37:34.096Z,15.31
2023-01-27T08:38:34.043Z,15.30
2023-01-27T08:39:33.965Z,15.30
2023-01-27T08:40:33.906Z,15.30
2023-01-27T08:41:33.891Z,15.30
2023-01-27T08:42:33.811Z,15.30
2023-01-27T08:43:33.802Z,15.30
2023-01-27T08:44:33.722Z,15.27
2023-01-27T08:45:33.815Z,15.28
2023-01-27T08:46:33.658Z,15.30
2023-01-27T08:48:33.389Z,15.28
2023-01-27T08:49:33.284Z,15.28
2023-01-27T08:50:33.185Z,15.27
2023-01-27T08:51:33.067Z,15.33
2023-01-27T08:52:32.921Z,15.25
2023-01-27T08:53:32.914Z,15.22
2023-01-27T08:54:32.756Z,15.22
2023-01-27T08:55:32.657Z,15.24
2023-01-27T08:56:32.515Z,15.22
2023-01-27T08:57:32.594Z,15.22
2023-01-27T08:58:32.437Z,15.18
2023-01-27T08:59:32.412Z,15.22
2023-01-27T09:00:32.282Z,15.22
2023-01-27T09:52:45.491Z,15.23
2023-01-27T09:53:29.884Z,15.17
2023-01-27T09:54:28.765Z,15.18
2023-01-27T09:55:28.657Z,15.18
2023-01-27T09:56:28.573Z,15.19
2023-01-27T09:57:29.015Z,15.21
2023-01-27T09:58:28.330Z,15.19
2023-01-27T09:59:28.207Z,15.19
2023-01-27T10:00:28.088Z,15.14
2023-01-27T10:01:28.051Z,15.14
2023-01-27T10:02:27.895Z,15.18
2023-01-27T10:03:27.774Z,15.18
2023-01-27T10:05:27.756Z,15.14
2023-01-27T10:06:27.605Z,15.14
2023-01-27T10:07:27.570Z,15.15
2023-01-27T10:08:27.477Z,15.08
2023-01-27T10:09:27.498Z,15.12
2023-01-27T10:10:27.439Z,15.09
2023-01-27T10:11:27.303Z,15.08
2023-01-27T10:12:27.249Z,15.14
2023-01-27T10:13:27.195Z,15.08
2023-01-27T10:14:27.112Z,15.11
2023-01-27T10:15:27.132Z,15.14
2023-01-27T10:16:27.074Z,15.15
2023-01-27T10:17:27.000Z,15.15
2023-01-27T10:18:26.866Z,15.17
2023-01-27T10:19:26.809Z,15.12
2023-01-27T10:20:26.789Z,15.12
2023-01-27T10:21:26.976Z,15.14
2023-01-27T10:22:26.656Z,15.09
2023-01-27T10:23:26.556Z,15.11
2023-01-27T10:24:26.533Z,15.08
2023-01-27T10:25:26.431Z,15.12
2023-01-27T10:26:26.380Z,15.06
2023-01-27T10:27:26.545Z,15.09
2023-01-27T10:28:26.309Z,15.11
2023-01-27T10:29:26.225Z,15.11
2023-01-27T10:30:26.147Z,15.11
2023-01-27T10:31:26.069Z,15.09
2023-01-27T10:32:26.017Z,15.08
2023-01-27T10:33:28.380Z,15.02
2023-01-27T10:34:26.750Z,15.07
2023-01-27T10:35:25.981Z,15.03
2023-01-27T10:36:25.929Z,15.11
2023-01-27T10:37:25.842Z,15.09
2023-01-27T10:38:25.821Z,15.12
2023-01-27T10:39:25.737Z,15.07
2023-01-27T10:40:25.681Z,15.11
2023-01-27T10:41:25.590Z,15.11
2023-01-27T10:42:25.575Z,15.14
2023-01-27T10:43:25.471Z,15.11
2023-01-27T10:44:25.431Z,15.08
2023-01-27T10:45:25.368Z,15.11
2023-01-27T11:06:23.443Z,15.11
2023-01-27T11:07:23.426Z,15.12
2023-01-27T11:08:23.368Z,15.11
2023-01-27T11:09:24.001Z,15.09
2023-01-27T11:10:23.200Z,15.13
2023-01-27T11:11:23.196Z,15.11
2023-01-27T11:12:23.106Z,15.07
2023-01-27T11:13:23.006Z,15.12
2023-01-27T11:14:22.967Z,15.15
2023-01-27T11:15:22.868Z,15.09
2023-01-27T11:16:22.887Z,15.07
2023-01-27T11:17:22.746Z,15.14
2023-01-27T11:18:22.705Z,15.05
2023-01-27T11:19:22.674Z,15.09
2023-01-27T11:20:22.579Z,15.09
2023-01-27T11:21:22.579Z,15.08
2023-01-27T11:22:22.455Z,15.03
2023-01-27T11:23:22.428Z,15.06
2023-01-27T11:24:22.429Z,15.08
2023-01-27T11:25:22.302Z,15.07
2023-01-27T11:26:23.781Z,15.05
2023-01-27T11:27:22.149Z,14.99
2023-01-27T11:28:22.090Z,15.05
2023-01-27T11:29:22.029Z,14.97
2023-01-27T11:30:22.030Z,14.99
2023-01-27T11:31:22.103Z,15.00
2023-01-27T11:32:22.117Z,15.02
2023-01-27T11:33:21.787Z,15.00
2023-01-27T11:34:21.783Z,14.99
2023-01-27T11:35:21.682Z,14.97
2023-01-27T11:36:21.634Z,14.97
2023-01-27T11:37:21.589Z,14.96
2023-01-27T11:38:21.576Z,15.00
2023-01-27T11:39:21.452Z,15.02
2023-01-27T11:40:21.392Z,14.97
2023-01-27T11:41:21.278Z,15.05
2023-01-27T11:42:21.237Z,15.02
2023-01-27T11:43:21.212Z,15.03
2023-01-27T11:44:21.179Z,15.02
2023-01-27T11:45:21.097Z,15.03
2023-01-27T11:46:21.031Z,14.99
2023-01-27T11:47:20.965Z,15.02
2023-01-27T11:48:23.324Z,15.02
2023-01-27T11:49:21.008Z,15.02
2023-01-27T11:50:20.947Z,15.03
2023-01-27T11:51:20.957Z,15.00
2023-01-27T11:52:20.861Z,15.09
2023-01-27T11:53:20.807Z,15.00
2023-01-27T11:54:20.792Z,14.97
2023-01-27T11:55:20.709Z,15.00
2023-01-27T11:56:20.566Z,15.08
2023-01-27T11:57:20.569Z,15.02
2023-01-27T11:58:20.517Z,15.05
2023-01-27T11:59:20.462Z,15.07
2023-01-27T12:00:20.424Z,15.05
2023-01-27T12:01:20.727Z,15.03
2023-01-27T12:02:20.278Z,15.08
2023-01-27T12:03:20.188Z,15.08
2023-01-27T12:48:17.577Z,15.04
2023-01-27T12:49:17.520Z,15.04
2023-01-27T12:53:17.296Z,14.98
2023-01-27T12:54:17.225Z,14.98
2023-01-27T12:55:17.111Z,15.04
2023-01-27T12:56:17.054Z,14.99
2023-01-27T12:57:17.031Z,14.98
2023-01-27T12:58:16.942Z,15.01
2023-01-27T13:01:16.719Z,15.04
2023-01-27T13:02:16.730Z,15.05
2023-01-27T13:03:16.608Z,15.05
2023-01-27T13:04:16.577Z,15.14
2023-01-27T13:05:16.513Z,15.05
2023-01-27T13:21:15.557Z,15.20
2023-01-27T13:22:15.500Z,15.17
2023-01-27T13:23:15.414Z,15.38
2023-01-27T13:24:15.409Z,15.35
2023-01-27T14:11:12.692Z,15.59
2023-01-27T14:12:12.665Z,15.60
2023-01-27T14:13:12.628Z,15.60
2023-01-27T14:14:12.572Z,15.59
2023-01-27T14:15:12.432Z,15.59
2023-01-27T14:16:12.398Z,15.54
2023-01-27T14:17:12.317Z,15.53
2023-01-27T14:18:12.301Z,15.54
2023-01-27T14:19:12.233Z,15.59
2023-01-27T14:20:12.488Z,15.62
2023-01-27T14:21:12.120Z,15.56
2023-01-27T14:22:12.063Z,15.59
2023-01-27T14:23:11.983Z,15.54
2023-01-27T14:24:11.960Z,15.50
2023-01-27T14:25:11.892Z,15.48
2023-01-27T14:26:11.852Z,15.56
2023-01-27T14:27:11.795Z,15.51
2023-01-27T14:28:11.737Z,15.53
2023-01-27T14:29:11.681Z,15.51
2023-01-27T14:30:11.824Z,15.46
2023-01-27T14:31:11.692Z,15.50
2023-01-27T14:32:11.534Z,15.42
2023-01-27T14:33:11.481Z,15.46
2023-01-27T14:34:11.438Z,15.44
2023-01-27T14:35:11.387Z,15.48
2023-01-27T14:36:11.296Z,15.36
2023-01-27T14:37:11.280Z,15.42
2023-01-27T14:38:11.213Z,15.45
2023-01-27T14:39:11.170Z,15.39
2023-01-27T14:40:11.084Z,15.41
2023-01-27T14:41:11.088Z,15.36
2023-01-27T14:42:10.976Z,15.38
2023-01-27T14:43:10.945Z,15.34
2023-01-27T14:44:10.905Z,15.31
2023-01-27T14:45:10.851Z,15.30
2023-01-27T14:46:10.770Z,15.33
2023-01-27T14:47:10.710Z,15.31
2023-01-27T14:48:10.655Z,15.34
2023-01-27T14:49:10.608Z,15.30
2023-01-27T14:50:10.547Z,15.39
2023-01-27T14:51:10.586Z,15.33
2023-01-27T14:52:10.437Z,15.34
2023-01-27T14:53:10.424Z,15.34
2023-01-27T14:54:10.364Z,15.35
2023-01-27T14:55:10.308Z,15.33
2023-01-27T14:56:10.240Z,15.34
2023-01-27T14:57:10.224Z,15.33
2023-01-27T14:58:10.163Z,15.34
2023-01-27T14:59:10.103Z,15.37
2023-01-27T15:00:10.018Z,15.37
2023-01-27T15:01:10.125Z,15.34
2023-01-27T15:02:10.004Z,15.30
2023-01-27T15:03:09.896Z,15.31
2023-01-27T15:04:09.848Z,15.27
2023-01-27T15:05:09.756Z,15.36
2023-01-27T15:06:09.719Z,15.31
2023-01-27T15:07:09.663Z,15.34
2023-01-27T15:08:09.621Z,15.36
2023-01-27T15:09:09.581Z,15.31
2023-01-27T15:10:09.513Z,15.30
2023-01-27T15:11:09.455Z,15.28
2023-01-27T15:12:09.412Z,15.33
2023-01-27T15:13:09.334Z,15.31
2023-01-27T15:14:09.299Z,15.27
2023-01-27T15:15:09.265Z,15.24
2023-01-27T15:16:09.161Z,15.36
2023-01-27T15:17:09.092Z,15.39
2023-01-27T15:18:09.067Z,15.33
2023-01-27T15:19:09.002Z,15.31
2023-01-27T15:20:08.932Z,15.33
2023-01-27T15:21:08.907Z,15.27
2023-01-27T15:22:08.847Z,15.39
2023-01-27T15:23:08.788Z,15.39
2023-01-27T15:24:08.751Z,15.36
2023-01-27T15:25:08.691Z,15.33
2023-01-27T15:26:08.644Z,15.39
2023-01-27T15:27:08.585Z,15.43
2023-01-27T15:28:08.511Z,15.45
2023-01-27T15:29:08.496Z,15.43
2023-01-27T15:30:08.393Z,15.43
2023-01-27T15:31:08.393Z,15.45
2023-01-27T15:32:08.376Z,15.46
2023-01-27T15:33:08.269Z,15.54
2023-01-27T15:34:08.233Z,15.48
2023-01-27T15:35:08.161Z,15.52
2023-01-27T15:36:08.141Z,15.57
2023-01-27T15:37:08.065Z,15.58
2023-01-27T15:38:08.005Z,15.67
2023-01-27T15:39:07.977Z,15.63
2023-01-27T15:40:07.951Z,15.58
2023-01-27T15:41:07.874Z,15.54
2023-01-27T15:42:07.794Z,15.55
2023-01-27T15:43:07.701Z,15.52
2023-01-27T15:44:07.711Z,15.57
2023-01-27T15:45:07.654Z,15.55
2023-01-27T15:46:07.605Z,15.52
2023-01-27T15:47:07.514Z,15.51
2023-01-27T15:48:07.493Z,15.52
2023-01-27T15:49:07.436Z,15.51
2023-01-27T15:50:07.338Z,15.54
2023-01-27T15:51:07.311Z,15.55
2023-01-27T15:52:07.203Z,15.58
2023-01-27T15:53:08.378Z,15.57
2023-01-27T15:54:07.154Z,15.55
2023-01-27T15:55:07.049Z,15.60
2023-01-27T15:56:06.962Z,15.61
2023-01-27T15:57:06.902Z,15.67
2023-01-27T15:58:06.845Z,15.73
2023-01-27T15:59:06.807Z,15.73
2023-01-27T16:00:06.776Z,15.73
2023-01-27T16:01:06.720Z,15.82
2023-01-27T16:02:06.648Z,15.73
2023-01-27T16:04:06.534Z,15.74
2023-01-27T16:05:06.468Z,15.72
2023-01-27T16:06:06.423Z,15.73
2023-01-27T16:07:06.390Z,15.80
2023-01-27T16:08:06.307Z,15.67
2023-01-27T16:11:06.106Z,15.85
2023-01-27T16:13:06.019Z,15.76
2023-01-27T16:14:05.953Z,15.79
2023-01-27T16:15:05.939Z,15.73
2023-01-27T16:16:05.891Z,15.76
2023-01-27T16:17:05.842Z,15.72
2023-01-27T16:18:05.796Z,15.74
2023-01-27T16:19:05.723Z,15.74
2023-01-27T16:20:05.691Z,15.71
2023-01-27T16:21:05.662Z,15.73
2023-01-27T16:22:05.562Z,15.70
2023-01-27T16:23:05.514Z,15.71
2023-01-27T16:24:05.506Z,15.68
2023-01-27T16:25:05.417Z,15.75
2023-01-27T16:26:05.397Z,15.74
2023-01-27T16:27:05.342Z,15.71
2023-01-27T16:29:05.679Z,15.71
2023-01-27T16:48:03.760Z,15.72
2023-01-27T17:00:02.769Z,15.73
2023-01-27T17:01:02.779Z,15.77
2023-01-27T17:02:02.608Z,16.02
2023-01-27T17:03:02.564Z,16.20
2023-01-27T17:04:14.038Z,16.12
2023-01-27T17:06:02.181Z,16.00
2023-01-27T17:07:02.094Z,15.98
2023-01-27T17:08:01.955Z,16.04
2023-01-27T17:09:01.865Z,15.93
2023-01-27T17:10:01.749Z,15.90
2023-01-27T17:11:01.655Z,15.87
2023-01-27T17:12:01.584Z,15.93
2023-01-27T17:13:01.423Z,15.91
2023-01-27T17:14:01.323Z,15.91
2023-01-27T17:15:01.220Z,15.93
2023-01-27T17:16:01.114Z,15.91
2023-01-27T17:17:01.182Z,15.91
2023-01-27T17:18:00.914Z,15.88
2023-01-27T17:19:00.859Z,15.87
2023-01-27T17:20:00.674Z,15.88
2023-01-27T17:21:00.600Z,15.82
2023-01-27T17:22:00.467Z,15.87
2023-01-27T17:23:00.389Z,15.75
2023-01-27T17:24:00.278Z,15.81
2023-01-27T17:25:00.154Z,15.76
2023-01-27T17:29:59.613Z,15.79
2023-01-27T17:30:59.555Z,15.73
2023-01-27T17:31:59.531Z,15.78
2023-01-27T17:32:59.324Z,15.75
2023-01-27T17:33:59.252Z,15.73
2023-01-27T17:34:59.134Z,15.70
2023-01-27T17:35:59.046Z,15.75
2023-01-27T17:36:58.942Z,15.72
2023-01-27T17:37:58.849Z,15.74
2023-01-27T17:38:58.776Z,15.72
2023-01-27T17:39:58.670Z,15.68
2023-01-27T17:40:58.529Z,15.72
2023-01-27T17:41:58.457Z,15.68
2023-01-27T17:42:58.378Z,15.68
2023-01-27T17:43:58.270Z,15.68
2023-01-27T17:44:58.208Z,15.69
2023-01-27T17:45:58.141Z,15.60
2023-01-27T17:46:57.998Z,15.67
2023-01-27T17:47:57.908Z,15.61
2023-01-27T17:48:57.802Z,15.70
2023-01-27T17:49:57.720Z,15.62
2023-01-27T17:50:57.635Z,15.61
2023-01-27T17:51:57.524Z,15.66
2023-01-27T17:52:57.480Z,15.62
2023-01-27T17:53:57.364Z,15.64
2023-01-27T17:54:57.265Z,15.62
2023-01-27T17:55:57.144Z,15.58
2023-01-27T17:56:57.078Z,15.60
2023-01-27T17:57:56.978Z,15.55
2023-01-27T17:58:56.886Z,15.61
2023-01-27T17:59:56.817Z,15.61
2023-01-27T18:00:56.732Z,15.58
2023-01-27T18:01:56.646Z,15.58
2023-01-27T18:02:56.574Z,15.59
2023-01-27T18:03:56.428Z,15.58
2023-01-27T18:04:56.765Z,15.58
2023-01-27T18:05:56.251Z,15.55
2023-01-27T18:06:56.173Z,15.59
2023-01-27T18:07:56.067Z,15.59
2023-01-27T18:08:56.009Z,15.59
2023-01-27T18:09:55.891Z,15.56
2023-01-27T18:10:55.795Z,15.52
2023-01-27T18:11:55.677Z,15.58
2023-01-27T18:12:55.597Z,15.56
2023-01-27T18:13:55.497Z,15.55
2023-01-27T18:14:55.433Z,15.55
2023-01-27T18:15:55.341Z,15.56
2023-01-27T18:16:55.235Z,15.56
2023-01-27T18:17:55.092Z,15.62
2023-01-27T18:18:55.007Z,15.52
2023-01-27T18:19:54.961Z,15.59
2023-01-27T18:20:54.867Z,15.59
2023-01-27T18:21:54.777Z,15.58
2023-01-27T18:22:54.736Z,15.56
2023-01-27T18:23:54.625Z,15.53
2023-01-27T18:24:54.495Z,15.52
2023-01-27T18:25:54.438Z,15.58
2023-01-27T18:26:54.360Z,15.56
2023-01-27T18:27:54.317Z,15.58
2023-01-27T18:28:54.279Z,15.56
2023-01-27T18:29:54.219Z,15.53
2023-01-27T18:30:54.286Z,15.53
2023-01-27T18:31:54.150Z,15.53
2023-01-27T18:32:54.028Z,15.55
2023-01-27T18:34:53.963Z,15.53
2023-01-27T18:39:53.738Z,15.52
2023-01-27T18:40:53.649Z,15.55
2023-01-27T18:41:53.602Z,15.56
2023-01-27T18:42:53.553Z,15.55
2023-01-27T18:43:53.521Z,15.50
2023-01-27T18:44:53.441Z,15.52
2023-01-27T18:45:53.354Z,15.52
2023-01-27T18:46:53.286Z,15.55
2023-01-27T18:47:53.188Z,15.47
2023-01-27T18:48:53.132Z,15.53
2023-01-27T18:49:53.055Z,15.55
2023-01-27T18:50:53.033Z,15.49
2023-01-27T18:51:52.975Z,15.52
2023-01-27T18:52:52.925Z,15.52
2023-01-27T18:53:52.853Z,15.47
2023-01-27T18:54:52.786Z,15.50
2023-01-27T18:55:53.694Z,15.46
2023-01-27T18:56:52.654Z,15.50
2023-01-27T18:57:52.554Z,15.52
2023-01-27T18:58:52.439Z,15.52
2023-01-27T18:59:52.365Z,15.49
2023-01-27T19:00:52.459Z,15.47
2023-01-27T19:01:52.211Z,15.47
2023-01-27T19:02:52.079Z,15.53
2023-01-27T19:03:51.989Z,15.47
2023-01-27T19:04:51.917Z,15.50
2023-01-27T19:05:51.808Z,15.46
2023-01-27T19:06:51.711Z,15.50